Laukaa, Finland
Kieli:  Suomi
CurCond
Päivitetty12/11/2019 13:16 
 

Lähistön Lentoasemien Säätiloja:

 

EFJY - Jyvaskyla (mil/C,) Finland
Etäisyys Sääasemalta: PKo 21km
Päivitetty: 12/11/2019 12:50
Pilvistä
Pilvistä
 Tuulen suunta Ka
Tuuli: Ka 11 km/h
Lämpötila: -2°C
Tuulen purevuus: -6°C
Kastepiste: -2°C
Ilmankosteus: 100%
Ilmanpaine: 1017 hPa
Pilvisyys: Pilvistä
Näkyvyys: 10 km
Pilvisyystiedot: Pilvistä 122 m
2019/11/12 10:50 EFJY 121050Z AUTO 14006KT 9999 OVC004 M02/M02 Q1017
EFHA - Halli (fin-Afb), Finland
Etäisyys Sääasemalta: Lo 56km
Päivitetty: 12/11/2019 12:50
Pilvistä
Pilvistä
 Tuulen suunta EKa
Tuuli: EKa 13 km/h
Lämpötila: 0°C
Tuulen purevuus: -4°C
Kastepiste: -1°C
Ilmankosteus: 93%
Ilmanpaine: 1017 hPa
Pilvisyys: Pilvistä
Näkyvyys: 10 km
Pilvisyystiedot: Pilvistä 122 m
2019/11/12 10:50 EFHA 121050Z 16007KT 9999 OVC004 M00/M01 Q1017
EFMI - Mikkeli, Finland
Etäisyys Sääasemalta: IKa 105km
Päivitetty: 12/11/2019 12:50
Pilvistä
Pilvistä
 Tuulen suunta varies
Tuuli: varies 4 km/h
Lämpötila: -2°C
Kastepiste: -2°C
Ilmankosteus: 100%
Ilmanpaine: 1019 hPa
Pilvisyys: Pilvistä
Näkyvyys: 10 km
Pilvisyystiedot: Pilvistä 122 m
2019/11/12 10:50 EFMI 121050Z AUTO VRB02KT 9999 OVC004 M02/M02 Q1019
 
EFTP - Tampere/Pirkkala, Finland
Etäisyys Sääasemalta: Lo 135km
Päivitetty: 12/11/2019 12:50
Puolipilvistä
Puolipilvistä
 Tuulen suunta Ka
Tuuli: Ka 15 km/h
Lämpötila: 1°C
Tuulen purevuus: -3°C
Kastepiste: 0°C
Ilmankosteus: 93%
Ilmanpaine: 1016 hPa
Pilvisyys: Puolipilvistä
Näkyvyys: 10 km
Pilvisyystiedot: Joitain Pilviä 244 m
Puolipilvistä 6096 m
2019/11/12 10:50 EFTP 121050Z 14008KT 9999 FEW008 SCT200 01/00 Q1016
EFKU - Kuopio (mil/Civ), Finland
Etäisyys Sääasemalta: Ko 146km
Päivitetty: 12/11/2019 12:50
Pilvistä
Pilvistä
 Tuulen suunta varies
Tuuli: varies 4 km/h
Lämpötila: -4°C
Kastepiste: -5°C
Ilmankosteus: 93%
Ilmanpaine: 1018 hPa
Pilvisyys: Pilvistä
Näkyvyys: 10 km
Pilvisyystiedot: Pilvistä 122 m
2019/11/12 10:50 EFKU 121050Z VRB02KT 9999 OVC004 M04/M05 Q1018
EFSI - Seinajoki-Ilmajo, Finland
Etäisyys Sääasemalta: LLu 149km
Päivitetty: 12/11/2019 12:50
Enimmäkseen pilvistä
Enimmäkseen pilvistä
 Tuulen suunta Ka
Tuuli: Ka 11 km/h
Lämpötila: 1°C
Tuulen purevuus: -2°C
Kastepiste: 1°C
Ilmankosteus: 100%
Ilmanpaine: 1015 hPa
Pilvisyys: Enimmäkseen pilvistä
Näkyvyys: 6 km
Pilvisyystiedot: Enimmäkseen pilvistä 61 m
2019/11/12 10:50 EFSI 121050Z AUTO 14006KT 100V170 6000 BKN002 01/01 Q1015